createdAt,value
2023-11-27T00:01:58.970Z,5.25
2023-11-27T00:04:25.768Z,5.25
2023-11-27T00:06:52.427Z,5.25
2023-11-27T00:09:19.008Z,5.19
2023-11-27T00:11:45.645Z,5.25
2023-11-27T00:14:12.583Z,5.25
2023-11-27T00:16:39.366Z,5.25
2023-11-27T00:19:07.620Z,5.25
2023-11-27T00:21:34.564Z,5.25
2023-11-27T00:24:04.571Z,5.25
2023-11-27T00:26:31.964Z,5.25
2023-11-27T00:28:58.849Z,5.25
2023-11-27T00:31:25.575Z,5.25
2023-11-27T00:33:52.181Z,5.25
2023-11-27T00:36:18.915Z,5.19
2023-11-27T00:38:45.537Z,5.25
2023-11-27T00:41:16.097Z,5.19
2023-11-27T00:43:43.253Z,5.19
2023-11-27T00:46:11.090Z,5.19
2023-11-27T00:48:38.189Z,5.25
2023-11-27T00:51:05.807Z,5.25
2023-11-27T00:53:32.407Z,5.19
2023-11-27T00:55:59.127Z,5.25
2023-11-27T00:58:26.366Z,5.25
2023-11-27T01:00:54.749Z,5.25
2023-11-27T01:03:21.423Z,5.19
2023-11-27T01:05:49.093Z,5.19
2023-11-27T01:08:15.817Z,5.19
2023-11-27T01:10:45.525Z,5.25
2023-11-27T01:13:12.628Z,5.19
2023-11-27T01:15:39.237Z,5.19
2023-11-27T01:18:06.040Z,5.13
2023-11-27T01:20:32.696Z,5.13
2023-11-27T01:22:59.408Z,5.13
2023-11-27T01:25:26.003Z,5.13
2023-11-27T01:27:52.778Z,5.13
2023-11-27T01:30:20.816Z,5.06
2023-11-27T01:32:47.575Z,5.06
2023-11-27T01:35:14.838Z,5.00
2023-11-27T01:37:41.460Z,5.00
2023-11-27T01:40:08.808Z,4.94
2023-11-27T01:42:35.501Z,4.94
2023-11-27T01:45:02.128Z,5.00
2023-11-27T01:47:28.764Z,4.94
2023-11-27T01:49:55.466Z,4.94
2023-11-27T01:52:22.923Z,4.94
2023-11-27T01:54:50.059Z,4.94
2023-11-27T01:57:16.743Z,4.88
2023-11-27T01:59:47.478Z,4.88
2023-11-27T02:02:15.884Z,4.88
2023-11-27T02:04:42.848Z,4.88
2023-11-27T02:07:10.329Z,4.88
2023-11-27T02:09:37.014Z,4.94
2023-11-27T02:12:03.848Z,4.88
2023-11-27T02:14:30.487Z,4.88
2023-11-27T02:16:58.541Z,4.88
2023-11-27T02:19:25.147Z,4.88
2023-11-27T02:21:51.872Z,4.88
2023-11-27T02:24:18.685Z,4.94
2023-11-27T02:26:45.355Z,4.94
2023-11-27T02:29:11.920Z,4.88
2023-11-27T02:31:38.768Z,4.88
2023-11-27T02:34:05.492Z,4.81
2023-11-27T02:36:39.440Z,4.88
2023-11-27T02:39:07.797Z,4.88
2023-11-27T02:41:38.308Z,4.88
2023-11-27T02:44:06.077Z,4.88
2023-11-27T02:46:32.910Z,4.88
2023-11-27T02:49:00.969Z,4.88
2023-11-27T02:51:27.571Z,4.94
2023-11-27T02:53:55.022Z,4.81
2023-11-27T02:56:21.810Z,4.88
2023-11-27T02:58:48.601Z,4.88
2023-11-27T03:01:15.934Z,4.81
2023-11-27T03:03:42.886Z,4.88
2023-11-27T03:06:09.924Z,4.88
2023-11-27T03:08:36.552Z,4.88
2023-11-27T03:11:03.169Z,4.88
2023-11-27T03:13:29.835Z,4.81
2023-11-27T03:15:56.466Z,4.88
2023-11-27T03:18:23.110Z,4.81
2023-11-27T03:20:49.653Z,4.81
2023-11-27T03:23:16.435Z,4.81
2023-11-27T03:25:43.092Z,4.81
2023-11-27T03:28:09.909Z,4.81
2023-11-27T03:30:36.550Z,4.81
2023-11-27T03:33:03.333Z,4.81
2023-11-27T03:35:30.231Z,4.81
2023-11-27T03:37:56.833Z,4.81
2023-11-27T03:40:23.764Z,4.81
2023-11-27T03:42:50.488Z,4.81
2023-11-27T03:45:17.056Z,4.81
2023-11-27T03:47:43.622Z,4.88
2023-11-27T03:50:11.935Z,4.81
2023-11-27T03:52:38.562Z,4.81
2023-11-27T03:55:05.655Z,4.81
2023-11-27T03:57:32.243Z,4.88
2023-11-27T03:59:58.782Z,4.81
2023-11-27T04:02:25.553Z,4.81
2023-11-27T04:04:52.267Z,4.81
2023-11-27T04:07:18.885Z,4.81
2023-11-27T04:09:45.539Z,4.81
2023-11-27T04:12:12.114Z,4.81
2023-11-27T04:14:38.669Z,4.88
2023-11-27T04:17:05.436Z,4.81
2023-11-27T04:19:32.073Z,4.81
2023-11-27T04:21:58.725Z,4.81
2023-11-27T04:24:26.470Z,4.75
2023-11-27T04:26:53.065Z,4.81
2023-11-27T04:29:20.212Z,4.81
2023-11-27T04:31:46.853Z,4.81
2023-11-27T04:34:13.475Z,4.81
2023-11-27T04:36:40.070Z,4.81
2023-11-27T04:39:11.847Z,4.81
2023-11-27T04:41:40.762Z,4.75
2023-11-27T04:44:07.733Z,4.75
2023-11-27T04:46:34.576Z,4.75
2023-11-27T04:49:01.386Z,4.75
2023-11-27T04:51:29.130Z,4.75
2023-11-27T04:53:55.750Z,4.75
2023-11-27T04:56:22.324Z,4.75
2023-11-27T04:58:48.947Z,4.69
2023-11-27T05:01:15.522Z,4.69
2023-11-27T05:03:42.170Z,4.69
2023-11-27T05:06:13.892Z,4.69
2023-11-27T05:08:40.521Z,4.69
2023-11-27T05:11:07.289Z,4.69
2023-11-27T05:13:33.964Z,4.63
2023-11-27T05:16:00.614Z,4.63
2023-11-27T05:18:27.230Z,4.63
2023-11-27T05:20:53.835Z,4.63
2023-11-27T05:23:20.526Z,4.56
2023-11-27T05:25:47.170Z,4.56
2023-11-27T05:28:13.854Z,4.63
2023-11-27T05:30:40.869Z,4.56
2023-11-27T05:33:07.605Z,4.56
2023-11-27T05:35:34.244Z,4.63
2023-11-27T05:38:00.786Z,4.56
2023-11-27T05:40:28.161Z,4.56
2023-11-27T05:42:55.433Z,4.63
2023-11-27T05:45:22.682Z,4.63
2023-11-27T05:47:50.659Z,4.56
2023-11-27T05:50:17.590Z,4.63
2023-11-27T05:52:44.920Z,4.56
2023-11-27T05:55:11.552Z,4.50
2023-11-27T05:57:38.389Z,4.56
2023-11-27T06:00:06.625Z,4.56
2023-11-27T06:02:33.193Z,4.56
2023-11-27T06:04:59.722Z,4.50
2023-11-27T06:07:26.357Z,4.56
2023-11-27T06:09:53.072Z,4.56
2023-11-27T06:12:20.192Z,4.56
2023-11-27T06:14:46.776Z,4.56
2023-11-27T06:17:13.424Z,4.50
2023-11-27T06:19:40.243Z,4.50
2023-11-27T06:22:06.991Z,4.44
2023-11-27T06:24:33.586Z,4.44
2023-11-27T06:27:00.256Z,4.50
2023-11-27T06:29:26.847Z,4.50
2023-11-27T06:31:53.468Z,4.50
2023-11-27T06:34:20.152Z,4.50
2023-11-27T06:36:46.773Z,4.50
2023-11-27T06:39:13.650Z,4.50
2023-11-27T06:41:40.416Z,4.50
2023-11-27T06:44:10.096Z,4.44
2023-11-27T06:46:37.208Z,4.44
2023-11-27T06:49:06.512Z,4.38
2023-11-27T06:51:33.190Z,4.44
2023-11-27T06:53:59.799Z,4.38
2023-11-27T06:56:26.414Z,4.38
2023-11-27T06:58:53.055Z,4.31
2023-11-27T07:01:19.713Z,4.31
2023-11-27T07:03:46.399Z,4.38
2023-11-27T07:06:13.074Z,4.38
2023-11-27T07:08:39.656Z,4.31
2023-11-27T07:11:06.850Z,4.31
2023-11-27T07:13:33.616Z,4.31
2023-11-27T07:16:00.427Z,4.31
2023-11-27T07:18:31.090Z,4.31
2023-11-27T07:21:01.209Z,4.31
2023-11-27T07:23:29.041Z,4.25
2023-11-27T07:25:57.188Z,4.38
2023-11-27T07:28:24.573Z,4.31
2023-11-27T07:30:51.182Z,4.31
2023-11-27T07:33:17.810Z,4.31
2023-11-27T07:35:44.412Z,4.31
2023-11-27T07:38:10.966Z,4.38
2023-11-27T07:40:37.628Z,4.31
2023-11-27T07:43:05.670Z,4.31
2023-11-27T07:45:32.218Z,4.31
2023-11-27T07:47:58.864Z,4.31
2023-11-27T07:50:25.520Z,4.31
2023-11-27T07:52:52.140Z,4.31
2023-11-27T07:55:18.890Z,4.25
2023-11-27T07:57:46.352Z,4.31
2023-11-27T08:00:15.635Z,4.31
2023-11-27T08:02:45.452Z,4.38
2023-11-27T08:05:12.431Z,4.38
2023-11-27T08:07:39.194Z,4.38
2023-11-27T08:10:09.346Z,4.31
2023-11-27T08:12:39.256Z,4.31
2023-11-27T08:15:08.728Z,4.44
2023-11-27T08:17:35.744Z,4.38
2023-11-27T08:20:06.562Z,4.38
2023-11-27T08:22:33.255Z,4.38
2023-11-27T08:25:01.542Z,4.44
2023-11-27T08:27:28.336Z,4.38
2023-11-27T08:29:55.058Z,4.38
2023-11-27T08:32:21.653Z,4.38
2023-11-27T08:34:50.061Z,4.31
2023-11-27T08:37:17.862Z,4.44
2023-11-27T08:39:44.664Z,4.38
2023-11-27T08:42:11.274Z,4.38
2023-11-27T08:44:39.018Z,4.31
2023-11-27T08:47:06.375Z,4.50
2023-11-27T08:49:33.478Z,4.44
2023-11-27T08:52:00.782Z,4.44
2023-11-27T08:54:33.319Z,4.50
2023-11-27T08:57:00.213Z,4.50
2023-11-27T08:59:26.953Z,4.56
2023-11-27T09:01:53.728Z,4.50
2023-11-27T09:04:20.487Z,4.50
2023-11-27T09:06:47.134Z,4.50
2023-11-27T09:09:13.781Z,4.50
2023-11-27T09:11:40.394Z,4.44
2023-11-27T09:14:07.074Z,4.50
2023-11-27T09:16:33.786Z,4.44
2023-11-27T09:19:00.660Z,4.50
2023-11-27T09:21:27.495Z,4.56
2023-11-27T09:23:55.522Z,4.56
2023-11-27T09:26:22.247Z,4.56
2023-11-27T09:28:48.810Z,4.44
2023-11-27T09:31:16.484Z,4.50
2023-11-27T09:33:43.127Z,4.50
2023-11-27T09:36:14.984Z,4.50
2023-11-27T09:38:42.668Z,4.50
2023-11-27T09:41:09.470Z,4.50
2023-11-27T09:43:37.165Z,4.56
2023-11-27T09:46:07.928Z,4.63
2023-11-27T09:48:40.960Z,4.56
2023-11-27T09:51:13.133Z,4.56
2023-11-27T09:53:48.802Z,4.56
2023-11-27T09:56:16.215Z,4.50
2023-11-27T09:58:44.092Z,4.63
2023-11-27T10:01:14.304Z,4.56
2023-11-27T10:03:42.335Z,4.69
2023-11-27T10:06:10.202Z,4.63
2023-11-27T10:08:36.820Z,4.63
2023-11-27T10:11:04.490Z,4.75
2023-11-27T10:13:51.740Z,4.75
2023-11-27T10:16:25.060Z,4.69
2023-11-27T10:18:54.714Z,4.69
2023-11-27T10:21:22.830Z,4.75
2023-11-27T10:23:51.413Z,4.75
2023-11-27T10:26:20.952Z,4.75
2023-11-27T10:28:49.475Z,4.81
2023-11-27T10:31:16.447Z,4.75
2023-11-27T10:33:43.068Z,4.81
2023-11-27T10:36:10.960Z,4.81
2023-11-27T10:38:37.727Z,4.81
2023-11-27T10:41:06.543Z,4.81
2023-11-27T10:43:37.986Z,4.88
2023-11-27T10:46:08.858Z,4.88
2023-11-27T10:48:43.766Z,4.88
2023-11-27T10:51:16.080Z,4.94
2023-11-27T10:53:47.484Z,4.94
2023-11-27T10:56:16.092Z,4.94
2023-11-27T10:58:43.107Z,4.81
2023-11-27T11:01:13.691Z,4.94
2023-11-27T11:03:44.639Z,4.94
2023-11-27T11:06:16.588Z,4.88
2023-11-27T11:08:46.405Z,4.94
2023-11-27T11:11:14.988Z,5.00
2023-11-27T11:13:41.591Z,4.94
2023-11-27T11:16:33.041Z,5.00
2023-11-27T11:19:13.565Z,5.00
2023-11-27T11:22:02.295Z,5.06
2023-11-27T11:24:45.653Z,5.13
2023-11-27T11:27:28.623Z,5.13
2023-11-27T11:29:59.264Z,5.06
2023-11-27T11:32:29.951Z,5.13
2023-11-27T11:35:03.457Z,5.13
2023-11-27T11:37:31.227Z,5.19
2023-11-27T11:39:58.633Z,5.19
2023-11-27T11:42:30.905Z,5.25
2023-11-27T11:45:05.469Z,5.19
2023-11-27T11:47:34.960Z,5.19
2023-11-27T11:50:28.225Z,5.19
2023-11-27T11:52:57.034Z,5.25
2023-11-27T11:55:32.435Z,5.25
2023-11-27T11:58:09.673Z,5.19
2023-11-27T12:00:44.923Z,5.25
2023-11-27T12:03:18.584Z,5.25
2023-11-27T12:05:54.443Z,5.25
2023-11-27T12:08:26.945Z,5.31
2023-11-27T12:10:54.675Z,5.25
2023-11-27T12:13:24.675Z,5.25
2023-11-27T12:15:53.473Z,5.31
2023-11-27T12:18:23.227Z,5.38
2023-11-27T12:20:50.998Z,5.44
2023-11-27T12:23:18.980Z,5.38
2023-11-27T12:25:45.846Z,5.31
2023-11-27T12:28:13.916Z,5.38
2023-11-27T12:30:41.402Z,5.44
2023-11-27T12:33:09.874Z,5.50
2023-11-27T12:35:36.677Z,5.44
2023-11-27T12:38:05.084Z,5.44
2023-11-27T12:40:34.753Z,5.50
2023-11-27T12:43:06.106Z,5.50
2023-11-27T12:45:34.042Z,5.50
2023-11-27T12:48:07.625Z,5.50
2023-11-27T12:50:41.409Z,5.56
2023-11-27T12:53:09.742Z,5.69
2023-11-27T12:55:47.863Z,5.69
2023-11-27T12:58:17.842Z,5.63
2023-11-27T13:00:46.403Z,5.69
2023-11-27T13:03:16.060Z,5.75
2023-11-27T13:05:45.493Z,5.69
2023-11-27T13:08:12.342Z,5.56
2023-11-27T13:10:44.648Z,5.75
2023-11-27T13:13:12.621Z,5.69
2023-11-27T13:15:39.682Z,5.56
2023-11-27T13:18:08.110Z,5.56
2023-11-27T13:20:39.633Z,5.69
2023-11-27T13:23:06.192Z,5.63
2023-11-27T13:25:36.199Z,5.69
2023-11-27T13:28:04.684Z,5.63
2023-11-27T13:30:31.382Z,5.69
2023-11-27T13:33:10.889Z,5.63
2023-11-27T13:35:41.614Z,5.63
2023-11-27T13:38:19.030Z,5.63
2023-11-27T13:40:55.689Z,5.63
2023-11-27T13:43:26.502Z,5.63
2023-11-27T13:45:53.544Z,5.75
2023-11-27T13:48:26.983Z,5.69
2023-11-27T13:50:58.037Z,5.75
2023-11-27T13:53:32.276Z,5.69
2023-11-27T13:56:04.299Z,5.69
2023-11-27T13:58:32.527Z,5.56
2023-11-27T14:01:04.657Z,5.56
2023-11-27T14:03:34.619Z,5.69
2023-11-27T14:06:05.583Z,5.75
2023-11-27T14:08:46.755Z,5.81
2023-11-27T14:11:21.480Z,5.69
2023-11-27T14:14:00.305Z,5.75
2023-11-27T14:16:29.042Z,5.81
2023-11-27T14:19:14.050Z,5.75
2023-11-27T14:21:59.850Z,5.81
2023-11-27T14:24:45.272Z,5.81
2023-11-27T14:27:20.579Z,5.88
2023-11-27T14:29:50.327Z,5.81
2023-11-27T14:32:17.491Z,5.81
2023-11-27T14:34:46.898Z,5.75
2023-11-27T14:37:14.878Z,5.75
2023-11-27T14:39:43.066Z,5.75
2023-11-27T14:42:09.764Z,5.75
2023-11-27T14:44:37.933Z,5.69
2023-11-27T14:47:06.484Z,5.75
2023-11-27T14:49:33.192Z,5.75
2023-11-27T14:52:09.052Z,5.81
2023-11-27T14:54:37.100Z,5.75
2023-11-27T14:57:07.311Z,5.75
2023-11-27T14:59:33.918Z,5.75
2023-11-27T15:02:00.708Z,5.75
2023-11-27T15:04:27.504Z,5.75
2023-11-27T15:06:54.391Z,5.75
2023-11-27T15:09:25.689Z,5.69
2023-11-27T15:11:53.176Z,5.63
2023-11-27T15:14:21.458Z,5.69
2023-11-27T15:16:49.476Z,5.69
2023-11-27T15:19:17.761Z,5.69
2023-11-27T15:21:45.444Z,5.69
2023-11-27T15:24:12.572Z,5.69
2023-11-27T15:26:40.244Z,5.63
2023-11-27T15:29:07.962Z,5.63
2023-11-27T15:31:37.597Z,5.56
2023-11-27T15:34:09.813Z,5.63
2023-11-27T15:36:37.186Z,5.50
2023-11-27T15:39:08.110Z,5.56
2023-11-27T15:41:34.699Z,5.50
2023-11-27T15:44:03.710Z,5.50
2023-11-27T15:46:30.358Z,5.50
2023-11-27T15:48:57.985Z,5.50
2023-11-27T15:51:24.589Z,5.50
2023-11-27T15:53:51.193Z,5.44
2023-11-27T15:56:20.558Z,5.44
2023-11-27T15:58:47.682Z,5.38
2023-11-27T16:01:14.412Z,5.31
2023-11-27T16:03:41.496Z,5.31
2023-11-27T16:06:09.966Z,5.31
2023-11-27T16:08:37.145Z,5.25
2023-11-27T16:11:07.092Z,5.25
2023-11-27T16:13:34.614Z,5.25
2023-11-27T16:16:01.333Z,5.06
2023-11-27T16:18:30.931Z,5.00
2023-11-27T16:20:58.845Z,4.94
2023-11-27T16:23:27.934Z,4.81
2023-11-27T16:25:55.257Z,4.69
2023-11-27T16:28:23.164Z,4.63
2023-11-27T16:30:50.062Z,4.63
2023-11-27T16:33:16.755Z,4.44
2023-11-27T16:35:43.414Z,4.50
2023-11-27T16:38:10.069Z,4.31
2023-11-27T16:40:38.825Z,4.25
2023-11-27T16:43:05.685Z,4.19
2023-11-27T16:45:33.137Z,4.13
2023-11-27T16:48:03.347Z,4.00
2023-11-27T16:50:32.311Z,4.06
2023-11-27T16:52:59.021Z,4.06
2023-11-27T16:55:28.738Z,4.00
2023-11-27T16:58:00.683Z,4.06
2023-11-27T17:00:34.019Z,4.00
2023-11-27T17:03:06.043Z,3.81
2023-11-27T17:05:33.945Z,3.81
2023-11-27T17:08:04.230Z,3.63
2023-11-27T17:10:32.003Z,3.63
2023-11-27T17:12:59.757Z,3.75
2023-11-27T17:15:29.934Z,3.50
2023-11-27T17:17:56.738Z,3.56
2023-11-27T17:20:23.911Z,3.38
2023-11-27T17:23:00.563Z,3.38
2023-11-27T17:25:34.186Z,3.44
2023-11-27T17:28:01.059Z,3.44
2023-11-27T17:30:28.073Z,3.31
2023-11-27T17:32:54.821Z,3.31
2023-11-27T17:35:21.604Z,3.25
2023-11-27T17:37:48.862Z,3.25
2023-11-27T17:40:15.811Z,3.19
2023-11-27T17:42:44.169Z,3.13
2023-11-27T17:45:14.799Z,3.19
2023-11-27T17:47:42.350Z,3.13
2023-11-27T17:50:14.296Z,3.06
2023-11-27T17:52:42.851Z,3.00
2023-11-27T17:55:14.828Z,3.06
2023-11-27T17:57:44.027Z,3.06
2023-11-27T18:00:15.070Z,3.06
2023-11-27T18:02:46.921Z,3.13
2023-11-27T18:05:15.367Z,3.06
2023-11-27T18:07:42.214Z,3.06
2023-11-27T18:10:12.175Z,3.19
2023-11-27T18:12:41.244Z,3.19
2023-11-27T18:15:08.887Z,2.94
2023-11-27T18:17:39.082Z,2.88
2023-11-27T18:20:09.818Z,2.81
2023-11-27T18:22:37.598Z,3.00
2023-11-27T18:25:10.419Z,2.94
2023-11-27T18:27:37.646Z,2.94
2023-11-27T18:30:09.057Z,2.94
2023-11-27T18:32:36.824Z,2.88
2023-11-27T18:35:04.052Z,2.75
2023-11-27T18:37:30.691Z,2.88
2023-11-27T18:39:57.951Z,2.81
2023-11-27T18:42:38.989Z,2.81
2023-11-27T18:45:09.825Z,2.50
2023-11-27T18:47:38.582Z,2.56
2023-11-27T18:50:05.734Z,2.63
2023-11-27T18:52:32.676Z,2.44
2023-11-27T18:54:59.419Z,2.56
2023-11-27T18:57:26.128Z,2.63
2023-11-27T18:59:52.740Z,2.50
2023-11-27T19:02:19.549Z,2.44
2023-11-27T19:04:46.370Z,2.38
2023-11-27T19:07:13.713Z,2.25
2023-11-27T19:09:42.285Z,2.25
2023-11-27T19:12:10.105Z,2.25
2023-11-27T19:14:37.003Z,2.19
2023-11-27T19:17:05.615Z,2.25
2023-11-27T19:19:32.724Z,2.19
2023-11-27T19:21:59.444Z,2.19
2023-11-27T19:24:28.503Z,2.25
2023-11-27T19:26:55.146Z,2.25
2023-11-27T19:29:21.833Z,2.13
2023-11-27T19:31:48.798Z,2.13
2023-11-27T19:34:15.635Z,2.00
2023-11-27T19:36:42.446Z,2.19
2023-11-27T19:39:17.784Z,2.19
2023-11-27T19:41:54.061Z,2.19
2023-11-27T19:44:21.528Z,2.25
2023-11-27T19:46:49.506Z,2.31
2023-11-27T19:49:17.652Z,2.38
2023-11-27T19:51:44.393Z,2.38
2023-11-27T19:54:16.350Z,2.38
2023-11-27T19:56:43.250Z,2.44
2023-11-27T19:59:09.873Z,2.38
2023-11-27T20:01:36.625Z,2.50
2023-11-27T20:04:04.088Z,2.44
2023-11-27T20:06:30.738Z,2.50
2023-11-27T20:08:57.314Z,2.50
2023-11-27T20:11:24.163Z,2.63
2023-11-27T20:13:50.876Z,2.50
2023-11-27T20:16:17.738Z,2.56
2023-11-27T20:18:45.182Z,2.56
2023-11-27T20:21:11.821Z,2.56
2023-11-27T20:23:39.931Z,2.63
2023-11-27T20:26:07.051Z,2.63
2023-11-27T20:28:33.681Z,2.63
2023-11-27T20:31:00.379Z,2.63
2023-11-27T20:33:38.843Z,2.56
2023-11-27T20:36:05.802Z,2.88
2023-11-27T20:38:34.354Z,2.94
2023-11-27T20:41:02.104Z,2.94
2023-11-27T20:43:29.471Z,2.75
2023-11-27T20:45:58.801Z,2.75
2023-11-27T20:48:26.682Z,2.81
2023-11-27T20:50:53.816Z,2.81
2023-11-27T20:53:20.626Z,2.81
2023-11-27T20:55:48.831Z,2.81
2023-11-27T20:58:19.565Z,2.88
2023-11-27T21:00:48.256Z,2.94
2023-11-27T21:03:15.847Z,3.00
2023-11-27T21:05:45.950Z,3.00
2023-11-27T21:08:13.621Z,3.00
2023-11-27T21:10:40.938Z,3.00
2023-11-27T21:13:08.565Z,2.94
2023-11-27T21:15:35.323Z,2.94
2023-11-27T21:18:02.726Z,3.00
2023-11-27T21:20:29.349Z,3.06
2023-11-27T21:22:56.232Z,2.94
2023-11-27T21:25:23.086Z,3.00
2023-11-27T21:27:51.484Z,3.00
2023-11-27T21:30:18.768Z,3.00
2023-11-27T21:32:49.668Z,3.00
2023-11-27T21:35:17.668Z,3.00
2023-11-27T21:37:45.379Z,3.00
2023-11-27T21:40:12.612Z,3.00
2023-11-27T21:42:41.754Z,3.06
2023-11-27T21:45:10.092Z,3.06
2023-11-27T21:47:38.105Z,3.06
2023-11-27T21:50:07.685Z,3.13
2023-11-27T21:52:34.603Z,3.13
2023-11-27T21:55:01.173Z,3.19
2023-11-27T21:57:27.844Z,3.13
2023-11-27T21:59:54.434Z,3.19
2023-11-27T22:02:22.973Z,3.19
2023-11-27T22:04:50.050Z,3.25
2023-11-27T22:07:20.021Z,3.31
2023-11-27T22:09:48.240Z,3.31
2023-11-27T22:12:15.536Z,3.25
2023-11-27T22:14:42.265Z,3.38
2023-11-27T22:17:09.426Z,3.50
2023-11-27T22:19:37.146Z,3.38
2023-11-27T22:22:03.922Z,3.38
2023-11-27T22:24:30.485Z,3.38
2023-11-27T22:26:57.023Z,3.38
2023-11-27T22:29:23.761Z,3.38
2023-11-27T22:31:50.495Z,3.38
2023-11-27T22:34:18.636Z,3.38
2023-11-27T22:36:45.822Z,3.31
2023-11-27T22:39:13.337Z,3.31
2023-11-27T22:41:46.451Z,3.31
2023-11-27T22:44:13.977Z,3.31
2023-11-27T22:46:40.879Z,3.31
2023-11-27T22:49:07.685Z,3.31
2023-11-27T22:51:34.433Z,3.31
2023-11-27T22:54:01.146Z,3.31
2023-11-27T22:56:29.761Z,3.25
2023-11-27T22:59:06.654Z,3.25
2023-11-27T23:01:40.944Z,3.25
2023-11-27T23:04:07.721Z,3.38
2023-11-27T23:06:38.067Z,3.31
2023-11-27T23:09:06.373Z,3.31
2023-11-27T23:11:33.022Z,3.25
2023-11-27T23:13:59.657Z,3.19
2023-11-27T23:16:26.850Z,3.19
2023-11-27T23:18:53.889Z,3.25
2023-11-27T23:21:20.517Z,3.19
2023-11-27T23:23:47.142Z,3.19
2023-11-27T23:26:13.989Z,3.19
2023-11-27T23:28:40.939Z,3.13
2023-11-27T23:31:08.310Z,3.13
2023-11-27T23:33:35.135Z,3.13
2023-11-27T23:36:01.920Z,3.19
2023-11-27T23:38:28.675Z,3.13
2023-11-27T23:40:55.413Z,3.06
2023-11-27T23:43:22.125Z,3.13
2023-11-27T23:45:48.706Z,3.13
2023-11-27T23:48:15.449Z,3.00
2023-11-27T23:50:45.096Z,3.00
2023-11-27T23:53:12.334Z,3.06
2023-11-27T23:55:39.601Z,3.06
2023-11-27T23:58:06.906Z,3.13
